sensor_id;sensor_type;location;lat;lon;timestamp;P1;durP1;ratioP1;P2;durP2;ratioP2
60318;SDS011;46163;52.306;5.634;2023-04-24T00:00:03;0.88;;;0.88;;
60318;SDS011;46163;52.306;5.634;2023-04-24T00:02:37;0.73;;;0.73;;
60318;SDS011;46163;52.306;5.634;2023-04-24T00:05:06;1.00;;;0.90;;
60318;SDS011;46163;52.306;5.634;2023-04-24T00:07:33;0.82;;;0.82;;
60318;SDS011;46163;52.306;5.634;2023-04-24T00:09:59;0.98;;;0.90;;
60318;SDS011;46163;52.306;5.634;2023-04-24T00:12:25;0.80;;;0.80;;
60318;SDS011;46163;52.306;5.634;2023-04-24T00:14:51;0.80;;;0.80;;
60318;SDS011;46163;52.306;5.634;2023-04-24T00:17:20;0.80;;;0.80;;
60318;SDS011;46163;52.306;5.634;2023-04-24T00:19:46;0.70;;;0.70;;
60318;SDS011;46163;52.306;5.634;2023-04-24T00:22:12;1.00;;;1.00;;
60318;SDS011;46163;52.306;5.634;2023-04-24T00:24:40;0.90;;;0.90;;
60318;SDS011;46163;52.306;5.634;2023-04-24T00:27:06;0.70;;;0.70;;
60318;SDS011;46163;52.306;5.634;2023-04-24T00:29:31;0.65;;;0.65;;
60318;SDS011;46163;52.306;5.634;2023-04-24T00:31:57;0.80;;;0.80;;
60318;SDS011;46163;52.306;5.634;2023-04-24T00:34:22;0.68;;;0.68;;
60318;SDS011;46163;52.306;5.634;2023-04-24T00:36:48;0.90;;;0.90;;
60318;SDS011;46163;52.306;5.634;2023-04-24T00:39:20;0.80;;;0.80;;
60318;SDS011;46163;52.306;5.634;2023-04-24T00:41:46;1.00;;;0.98;;
60318;SDS011;46163;52.306;5.634;2023-04-24T00:44:13;1.08;;;0.90;;
60318;SDS011;46163;52.306;5.634;2023-04-24T00:46:39;0.70;;;0.70;;
60318;SDS011;46163;52.306;5.634;2023-04-24T00:49:05;0.70;;;0.70;;
60318;SDS011;46163;52.306;5.634;2023-04-24T00:51:31;0.70;;;0.70;;
60318;SDS011;46163;52.306;5.634;2023-04-24T00:53:58;0.80;;;0.80;;
60318;SDS011;46163;52.306;5.634;2023-04-24T00:56:23;0.80;;;0.80;;
60318;SDS011;46163;52.306;5.634;2023-04-24T00:58:49;0.80;;;0.80;;
60318;SDS011;46163;52.306;5.634;2023-04-24T01:01:15;0.80;;;0.80;;
60318;SDS011;46163;52.306;5.634;2023-04-24T01:03:41;1.02;;;1.00;;
60318;SDS011;46163;52.306;5.634;2023-04-24T01:06:07;0.70;;;0.70;;
60318;SDS011;46163;52.306;5.634;2023-04-24T01:08:34;0.82;;;0.82;;
60318;SDS011;46163;52.306;5.634;2023-04-24T01:11:00;0.95;;;0.90;;
60318;SDS011;46163;52.306;5.634;2023-04-24T01:13:28;0.70;;;0.70;;
60318;SDS011;46163;52.306;5.634;2023-04-24T01:15:54;0.93;;;0.90;;
60318;SDS011;46163;52.306;5.634;2023-04-24T01:18:19;0.88;;;0.85;;
60318;SDS011;46163;52.306;5.634;2023-04-24T01:20:46;0.70;;;0.70;;
60318;SDS011;46163;52.306;5.634;2023-04-24T01:23:15;0.70;;;0.70;;
60318;SDS011;46163;52.306;5.634;2023-04-24T01:25:41;0.65;;;0.65;;
60318;SDS011;46163;52.306;5.634;2023-04-24T01:28:06;0.85;;;0.85;;
60318;SDS011;46163;52.306;5.634;2023-04-24T01:30:32;0.70;;;0.70;;
60318;SDS011;46163;52.306;5.634;2023-04-24T01:32:57;0.80;;;0.80;;
60318;SDS011;46163;52.306;5.634;2023-04-24T01:35:24;0.70;;;0.70;;
60318;SDS011;46163;52.306;5.634;2023-04-24T01:37:49;0.70;;;0.70;;
60318;SDS011;46163;52.306;5.634;2023-04-24T01:40:15;0.57;;;0.57;;
60318;SDS011;46163;52.306;5.634;2023-04-24T01:42:41;0.60;;;0.60;;
60318;SDS011;46163;52.306;5.634;2023-04-24T01:45:07;0.68;;;0.68;;
60318;SDS011;46163;52.306;5.634;2023-04-24T01:47:35;0.50;;;0.50;;
60318;SDS011;46163;52.306;5.634;2023-04-24T01:50:01;0.50;;;0.50;;
60318;SDS011;46163;52.306;5.634;2023-04-24T01:52:28;0.77;;;0.77;;
60318;SDS011;46163;52.306;5.634;2023-04-24T01:54:56;0.70;;;0.70;;
60318;SDS011;46163;52.306;5.634;2023-04-24T01:57:21;0.70;;;0.70;;
60318;SDS011;46163;52.306;5.634;2023-04-24T01:59:47;0.80;;;0.80;;
60318;SDS011;46163;52.306;5.634;2023-04-24T02:02:13;1.15;;;0.90;;
60318;SDS011;46163;52.306;5.634;2023-04-24T02:04:39;0.77;;;0.77;;
60318;SDS011;46163;52.306;5.634;2023-04-24T02:07:04;0.70;;;0.70;;
60318;SDS011;46163;52.306;5.634;2023-04-24T02:09:30;0.60;;;0.60;;
60318;SDS011;46163;52.306;5.634;2023-04-24T02:11:55;1.05;;;1.02;;
60318;SDS011;46163;52.306;5.634;2023-04-24T02:14:21;0.63;;;0.63;;
60318;SDS011;46163;52.306;5.634;2023-04-24T02:16:46;0.73;;;0.73;;
60318;SDS011;46163;52.306;5.634;2023-04-24T02:19:12;0.75;;;0.75;;
60318;SDS011;46163;52.306;5.634;2023-04-24T02:21:37;0.60;;;0.60;;
60318;SDS011;46163;52.306;5.634;2023-04-24T02:24:03;0.73;;;0.73;;
60318;SDS011;46163;52.306;5.634;2023-04-24T02:26:28;0.95;;;0.95;;
60318;SDS011;46163;52.306;5.634;2023-04-24T02:29:02;0.50;;;0.50;;
60318;SDS011;46163;52.306;5.634;2023-04-24T02:31:27;0.55;;;0.55;;
60318;SDS011;46163;52.306;5.634;2023-04-24T02:33:53;0.70;;;0.70;;
60318;SDS011;46163;52.306;5.634;2023-04-24T02:36:18;0.60;;;0.60;;
60318;SDS011;46163;52.306;5.634;2023-04-24T02:38:44;0.70;;;0.70;;
60318;SDS011;46163;52.306;5.634;2023-04-24T02:41:09;0.63;;;0.63;;
60318;SDS011;46163;52.306;5.634;2023-04-24T02:43:35;0.70;;;0.70;;
60318;SDS011;46163;52.306;5.634;2023-04-24T02:46:00;0.68;;;0.68;;
60318;SDS011;46163;52.306;5.634;2023-04-24T02:48:26;0.60;;;0.60;;
60318;SDS011;46163;52.306;5.634;2023-04-24T02:50:51;0.60;;;0.60;;
60318;SDS011;46163;52.306;5.634;2023-04-24T02:53:17;0.82;;;0.82;;
60318;SDS011;46163;52.306;5.634;2023-04-24T02:55:42;0.85;;;0.85;;
60318;SDS011;46163;52.306;5.634;2023-04-24T02:58:08;0.80;;;0.80;;
60318;SDS011;46163;52.306;5.634;2023-04-24T03:00:33;0.65;;;0.65;;
60318;SDS011;46163;52.306;5.634;2023-04-24T03:02:59;0.80;;;0.80;;
60318;SDS011;46163;52.306;5.634;2023-04-24T03:05:24;0.65;;;0.65;;
60318;SDS011;46163;52.306;5.634;2023-04-24T03:07:50;0.60;;;0.60;;
60318;SDS011;46163;52.306;5.634;2023-04-24T03:10:17;0.60;;;0.60;;
60318;SDS011;46163;52.306;5.634;2023-04-24T03:12:43;0.70;;;0.70;;
60318;SDS011;46163;52.306;5.634;2023-04-24T03:15:08;0.75;;;0.75;;
60318;SDS011;46163;52.306;5.634;2023-04-24T03:17:34;0.73;;;0.73;;
60318;SDS011;46163;52.306;5.634;2023-04-24T03:20:00;0.82;;;0.82;;
60318;SDS011;46163;52.306;5.634;2023-04-24T03:22:26;0.55;;;0.55;;
60318;SDS011;46163;52.306;5.634;2023-04-24T03:24:51;0.60;;;0.60;;
60318;SDS011;46163;52.306;5.634;2023-04-24T03:27:17;0.65;;;0.65;;
60318;SDS011;46163;52.306;5.634;2023-04-24T03:29:42;0.63;;;0.63;;
60318;SDS011;46163;52.306;5.634;2023-04-24T03:32:08;0.75;;;0.70;;
60318;SDS011;46163;52.306;5.634;2023-04-24T03:34:33;0.47;;;0.47;;
60318;SDS011;46163;52.306;5.634;2023-04-24T03:36:59;0.65;;;0.65;;
60318;SDS011;46163;52.306;5.634;2023-04-24T03:39:25;0.73;;;0.60;;
60318;SDS011;46163;52.306;5.634;2023-04-24T03:41:50;0.60;;;0.60;;
60318;SDS011;46163;52.306;5.634;2023-04-24T03:44:16;0.57;;;0.57;;
60318;SDS011;46163;52.306;5.634;2023-04-24T03:46:41;0.50;;;0.50;;
60318;SDS011;46163;52.306;5.634;2023-04-24T03:49:07;0.75;;;0.75;;
60318;SDS011;46163;52.306;5.634;2023-04-24T03:51:32;0.60;;;0.60;;
60318;SDS011;46163;52.306;5.634;2023-04-24T03:53:58;0.60;;;0.60;;
60318;SDS011;46163;52.306;5.634;2023-04-24T03:56:23;0.50;;;0.50;;
60318;SDS011;46163;52.306;5.634;2023-04-24T03:58:49;0.60;;;0.60;;
60318;SDS011;46163;52.306;5.634;2023-04-24T04:01:14;0.60;;;0.60;;
60318;SDS011;46163;52.306;5.634;2023-04-24T04:03:41;0.68;;;0.68;;
60318;SDS011;46163;52.306;5.634;2023-04-24T04:06:06;0.50;;;0.50;;
60318;SDS011;46163;52.306;5.634;2023-04-24T04:08:32;0.57;;;0.57;;
60318;SDS011;46163;52.306;5.634;2023-04-24T04:10:57;0.60;;;0.60;;
60318;SDS011;46163;52.306;5.634;2023-04-24T04:13:23;0.60;;;0.60;;
60318;SDS011;46163;52.306;5.634;2023-04-24T04:15:48;0.50;;;0.50;;
60318;SDS011;46163;52.306;5.634;2023-04-24T04:18:14;0.50;;;0.50;;
60318;SDS011;46163;52.306;5.634;2023-04-24T04:20:40;0.60;;;0.60;;
60318;SDS011;46163;52.306;5.634;2023-04-24T04:23:06;0.57;;;0.50;;
60318;SDS011;46163;52.306;5.634;2023-04-24T04:25:31;0.40;;;0.40;;
60318;SDS011;46163;52.306;5.634;2023-04-24T04:27:57;0.65;;;0.65;;
60318;SDS011;46163;52.306;5.634;2023-04-24T04:30:24;0.60;;;0.60;;
60318;SDS011;46163;52.306;5.634;2023-04-24T04:32:51;0.47;;;0.47;;
60318;SDS011;46163;52.306;5.634;2023-04-24T04:35:16;0.50;;;0.50;;
60318;SDS011;46163;52.306;5.634;2023-04-24T04:37:42;0.40;;;0.40;;
60318;SDS011;46163;52.306;5.634;2023-04-24T04:40:08;0.60;;;0.60;;
60318;SDS011;46163;52.306;5.634;2023-04-24T04:42:36;0.50;;;0.50;;
60318;SDS011;46163;52.306;5.634;2023-04-24T04:45:05;0.60;;;0.60;;
60318;SDS011;46163;52.306;5.634;2023-04-24T04:47:34;0.60;;;0.60;;
60318;SDS011;46163;52.306;5.634;2023-04-24T04:49:59;0.60;;;0.60;;
60318;SDS011;46163;52.306;5.634;2023-04-24T04:52:25;0.50;;;0.50;;
60318;SDS011;46163;52.306;5.634;2023-04-24T04:54:51;0.75;;;0.75;;
60318;SDS011;46163;52.306;5.634;2023-04-24T04:57:17;0.55;;;0.55;;
60318;SDS011;46163;52.306;5.634;2023-04-24T04:59:42;0.50;;;0.50;;
60318;SDS011;46163;52.306;5.634;2023-04-24T05:02:08;0.40;;;0.40;;
60318;SDS011;46163;52.306;5.634;2023-04-24T05:04:34;0.55;;;0.55;;
60318;SDS011;46163;52.306;5.634;2023-04-24T05:07:00;0.70;;;0.70;;
60318;SDS011;46163;52.306;5.634;2023-04-24T05:09:25;0.50;;;0.50;;
60318;SDS011;46163;52.306;5.634;2023-04-24T05:11:52;0.63;;;0.63;;
60318;SDS011;46163;52.306;5.634;2023-04-24T05:14:18;0.40;;;0.40;;
60318;SDS011;46163;52.306;5.634;2023-04-24T05:16:44;0.57;;;0.57;;
60318;SDS011;46163;52.306;5.634;2023-04-24T05:19:09;0.40;;;0.40;;
60318;SDS011;46163;52.306;5.634;2023-04-24T05:21:36;0.93;;;0.55;;
60318;SDS011;46163;52.306;5.634;2023-04-24T05:24:02;0.40;;;0.40;;
60318;SDS011;46163;52.306;5.634;2023-04-24T05:26:28;0.55;;;0.47;;
60318;SDS011;46163;52.306;5.634;2023-04-24T05:28:53;0.50;;;0.50;;
60318;SDS011;46163;52.306;5.634;2023-04-24T05:31:27;0.45;;;0.45;;
60318;SDS011;46163;52.306;5.634;2023-04-24T05:33:53;0.30;;;0.30;;
60318;SDS011;46163;52.306;5.634;2023-04-24T05:36:18;0.68;;;0.68;;
60318;SDS011;46163;52.306;5.634;2023-04-24T05:38:44;0.60;;;0.60;;
60318;SDS011;46163;52.306;5.634;2023-04-24T05:41:10;1.58;;;0.43;;
60318;SDS011;46163;52.306;5.634;2023-04-24T05:43:35;0.65;;;0.65;;
60318;SDS011;46163;52.306;5.634;2023-04-24T05:46:01;0.40;;;0.40;;
60318;SDS011;46163;52.306;5.634;2023-04-24T05:48:26;0.57;;;0.57;;
60318;SDS011;46163;52.306;5.634;2023-04-24T05:50:52;1.02;;;0.70;;
60318;SDS011;46163;52.306;5.634;2023-04-24T05:53:17;2.30;;;0.52;;
60318;SDS011;46163;52.306;5.634;2023-04-24T05:55:43;0.82;;;0.57;;
60318;SDS011;46163;52.306;5.634;2023-04-24T05:58:09;0.47;;;0.47;;
60318;SDS011;46163;52.306;5.634;2023-04-24T06:00:35;0.40;;;0.40;;
60318;SDS011;46163;52.306;5.634;2023-04-24T06:03:01;1.48;;;0.60;;
60318;SDS011;46163;52.306;5.634;2023-04-24T06:05:28;1.15;;;0.73;;
60318;SDS011;46163;52.306;5.634;2023-04-24T06:07:55;0.93;;;0.73;;
60318;SDS011;46163;52.306;5.634;2023-04-24T06:10:22;0.52;;;0.52;;
60318;SDS011;46163;52.306;5.634;2023-04-24T06:12:50;0.60;;;0.60;;
60318;SDS011;46163;52.306;5.634;2023-04-24T06:15:15;2.28;;;0.93;;
60318;SDS011;46163;52.306;5.634;2023-04-24T06:17:41;2.95;;;0.90;;
60318;SDS011;46163;52.306;5.634;2023-04-24T06:20:07;0.70;;;0.70;;
60318;SDS011;46163;52.306;5.634;2023-04-24T06:22:33;0.57;;;0.57;;
60318;SDS011;46163;52.306;5.634;2023-04-24T06:24:59;0.45;;;0.45;;
60318;SDS011;46163;52.306;5.634;2023-04-24T06:27:25;0.70;;;0.70;;
60318;SDS011;46163;52.306;5.634;2023-04-24T06:29:51;0.60;;;0.60;;
60318;SDS011;46163;52.306;5.634;2023-04-24T06:32:20;0.75;;;0.60;;
60318;SDS011;46163;52.306;5.634;2023-04-24T06:34:50;0.57;;;0.57;;
60318;SDS011;46163;52.306;5.634;2023-04-24T06:37:16;0.60;;;0.60;;
60318;SDS011;46163;52.306;5.634;2023-04-24T06:39:42;1.17;;;0.60;;
60318;SDS011;46163;52.306;5.634;2023-04-24T06:42:07;0.63;;;0.63;;
60318;SDS011;46163;52.306;5.634;2023-04-24T06:44:34;1.25;;;0.65;;
60318;SDS011;46163;52.306;5.634;2023-04-24T06:47:05;0.50;;;0.50;;
60318;SDS011;46163;52.306;5.634;2023-04-24T06:49:38;0.65;;;0.65;;
60318;SDS011;46163;52.306;5.634;2023-04-24T06:52:05;0.75;;;0.60;;
60318;SDS011;46163;52.306;5.634;2023-04-24T06:54:31;0.60;;;0.60;;
60318;SDS011;46163;52.306;5.634;2023-04-24T06:56:57;0.55;;;0.55;;
60318;SDS011;46163;52.306;5.634;2023-04-24T06:59:24;0.60;;;0.60;;
60318;SDS011;46163;52.306;5.634;2023-04-24T07:01:50;1.02;;;0.90;;
60318;SDS011;46163;52.306;5.634;2023-04-24T07:04:18;1.77;;;0.90;;
60318;SDS011;46163;52.306;5.634;2023-04-24T07:06:47;0.85;;;0.77;;
60318;SDS011;46163;52.306;5.634;2023-04-24T07:09:16;0.70;;;0.70;;
60318;SDS011;46163;52.306;5.634;2023-04-24T07:11:43;3.55;;;0.77;;
60318;SDS011;46163;52.306;5.634;2023-04-24T07:14:10;0.70;;;0.70;;
60318;SDS011;46163;52.306;5.634;2023-04-24T07:16:37;0.60;;;0.60;;
60318;SDS011;46163;52.306;5.634;2023-04-24T07:19:03;0.95;;;0.95;;
60318;SDS011;46163;52.306;5.634;2023-04-24T07:21:29;1.05;;;0.98;;
60318;SDS011;46163;52.306;5.634;2023-04-24T07:23:56;0.93;;;0.93;;
60318;SDS011;46163;52.306;5.634;2023-04-24T07:26:22;2.22;;;1.05;;
60318;SDS011;46163;52.306;5.634;2023-04-24T07:28:48;0.93;;;0.93;;
60318;SDS011;46163;52.306;5.634;2023-04-24T07:31:14;0.80;;;0.77;;
60318;SDS011;46163;52.306;5.634;2023-04-24T07:33:39;0.75;;;0.75;;
60318;SDS011;46163;52.306;5.634;2023-04-24T07:36:05;0.90;;;0.90;;
60318;SDS011;46163;52.306;5.634;2023-04-24T07:38:31;1.00;;;1.00;;
60318;SDS011;46163;52.306;5.634;2023-04-24T07:40:57;1.30;;;1.13;;
60318;SDS011;46163;52.306;5.634;2023-04-24T07:43:23;2.35;;;1.23;;
60318;SDS011;46163;52.306;5.634;2023-04-24T07:45:52;3.80;;;1.10;;
60318;SDS011;46163;52.306;5.634;2023-04-24T07:48:17;2.28;;;1.23;;
60318;SDS011;46163;52.306;5.634;2023-04-24T07:50:43;1.85;;;1.17;;
60318;SDS011;46163;52.306;5.634;2023-04-24T07:53:10;2.83;;;1.65;;
60318;SDS011;46163;52.306;5.634;2023-04-24T07:55:36;1.85;;;1.15;;
60318;SDS011;46163;52.306;5.634;2023-04-24T07:58:01;1.65;;;1.13;;
60318;SDS011;46163;52.306;5.634;2023-04-24T08:00:27;0.90;;;0.90;;
60318;SDS011;46163;52.306;5.634;2023-04-24T08:02:53;2.05;;;1.13;;
60318;SDS011;46163;52.306;5.634;2023-04-24T08:05:18;0.82;;;0.82;;
60318;SDS011;46163;52.306;5.634;2023-04-24T08:07:45;1.02;;;0.95;;
60318;SDS011;46163;52.306;5.634;2023-04-24T08:10:13;1.10;;;1.00;;
60318;SDS011;46163;52.306;5.634;2023-04-24T08:12:40;1.30;;;1.20;;
60318;SDS011;46163;52.306;5.634;2023-04-24T08:15:06;0.90;;;0.90;;
60318;SDS011;46163;52.306;5.634;2023-04-24T08:17:33;1.17;;;1.05;;
60318;SDS011;46163;52.306;5.634;2023-04-24T08:20:03;3.10;;;1.20;;
60318;SDS011;46163;52.306;5.634;2023-04-24T08:22:30;2.67;;;1.08;;
60318;SDS011;46163;52.306;5.634;2023-04-24T08:24:55;1.33;;;0.90;;
60318;SDS011;46163;52.306;5.634;2023-04-24T08:27:22;1.00;;;1.00;;
60318;SDS011;46163;52.306;5.634;2023-04-24T08:29:49;2.33;;;0.90;;
60318;SDS011;46163;52.306;5.634;2023-04-24T08:32:18;1.08;;;1.08;;
60318;SDS011;46163;52.306;5.634;2023-04-24T08:34:43;1.77;;;1.33;;
60318;SDS011;46163;52.306;5.634;2023-04-24T08:37:09;1.23;;;1.00;;
60318;SDS011;46163;52.306;5.634;2023-04-24T08:39:34;4.03;;;1.42;;
60318;SDS011;46163;52.306;5.634;2023-04-24T08:41:59;1.73;;;1.10;;
60318;SDS011;46163;52.306;5.634;2023-04-24T08:44:31;1.20;;;1.10;;
60318;SDS011;46163;52.306;5.634;2023-04-24T08:46:57;2.72;;;1.23;;
60318;SDS011;46163;52.306;5.634;2023-04-24T08:49:23;6.20;;;1.38;;
60318;SDS011;46163;52.306;5.634;2023-04-24T08:51:49;2.00;;;1.13;;
60318;SDS011;46163;52.306;5.634;2023-04-24T08:54:17;1.40;;;1.30;;
60318;SDS011;46163;52.306;5.634;2023-04-24T08:59:13;1.88;;;1.30;;
60318;SDS011;46163;52.306;5.634;2023-04-24T09:01:40;1.00;;;1.00;;
60318;SDS011;46163;52.306;5.634;2023-04-24T09:04:06;1.48;;;1.30;;
60318;SDS011;46163;52.306;5.634;2023-04-24T09:06:35;1.92;;;1.20;;
60318;SDS011;46163;52.306;5.634;2023-04-24T09:09:01;1.85;;;1.10;;
60318;SDS011;46163;52.306;5.634;2023-04-24T09:11:29;2.47;;;1.30;;
60318;SDS011;46163;52.306;5.634;2023-04-24T09:13:56;1.08;;;0.95;;
60318;SDS011;46163;52.306;5.634;2023-04-24T09:16:22;4.75;;;1.20;;
60318;SDS011;46163;52.306;5.634;2023-04-24T09:18:50;1.00;;;1.00;;
60318;SDS011;46163;52.306;5.634;2023-04-24T09:21:15;1.42;;;1.02;;
60318;SDS011;46163;52.306;5.634;2023-04-24T09:23:41;1.45;;;1.35;;
60318;SDS011;46163;52.306;5.634;2023-04-24T09:26:07;2.17;;;1.40;;
60318;SDS011;46163;52.306;5.634;2023-04-24T09:28:38;1.20;;;1.10;;
60318;SDS011;46163;52.306;5.634;2023-04-24T09:33:51;3.83;;;1.40;;
60318;SDS011;46163;52.306;5.634;2023-04-24T09:36:34;1.40;;;1.10;;
60318;SDS011;46163;52.306;5.634;2023-04-24T09:39:04;1.30;;;1.20;;
60318;SDS011;46163;52.306;5.634;2023-04-24T09:41:33;1.95;;;1.33;;
60318;SDS011;46163;52.306;5.634;2023-04-24T09:47:00;1.33;;;1.00;;
60318;SDS011;46163;52.306;5.634;2023-04-24T09:49:31;1.08;;;1.00;;
60318;SDS011;46163;52.306;5.634;2023-04-24T09:52:09;1.20;;;1.10;;
60318;SDS011;46163;52.306;5.634;2023-04-24T09:54:35;1.27;;;1.15;;
60318;SDS011;46163;52.306;5.634;2023-04-24T09:57:02;1.48;;;1.20;;
60318;SDS011;46163;52.306;5.634;2023-04-24T09:59:28;1.10;;;1.05;;
60318;SDS011;46163;52.306;5.634;2023-04-24T10:01:54;1.00;;;1.00;;
60318;SDS011;46163;52.306;5.634;2023-04-24T10:04:21;1.30;;;1.20;;
60318;SDS011;46163;52.306;5.634;2023-04-24T10:06:49;2.45;;;1.38;;
60318;SDS011;46163;52.306;5.634;2023-04-24T10:09:16;2.17;;;1.23;;
60318;SDS011;46163;52.306;5.634;2023-04-24T10:11:43;0.90;;;0.90;;
60318;SDS011;46163;52.306;5.634;2023-04-24T10:14:13;1.48;;;1.15;;
60318;SDS011;46163;52.306;5.634;2023-04-24T10:16:40;2.42;;;1.10;;
60318;SDS011;46163;52.306;5.634;2023-04-24T10:19:07;1.05;;;1.00;;
60318;SDS011;46163;52.306;5.634;2023-04-24T10:21:33;1.30;;;1.05;;
60318;SDS011;46163;52.306;5.634;2023-04-24T10:24:02;2.40;;;0.95;;
60318;SDS011;46163;52.306;5.634;2023-04-24T10:26:32;1.02;;;1.02;;
60318;SDS011;46163;52.306;5.634;2023-04-24T10:28:59;1.20;;;1.05;;
60318;SDS011;46163;52.306;5.634;2023-04-24T10:31:25;1.27;;;1.23;;
60318;SDS011;46163;52.306;5.634;2023-04-24T10:33:52;1.80;;;1.30;;
60318;SDS011;46163;52.306;5.634;2023-04-24T10:36:19;1.20;;;1.20;;
60318;SDS011;46163;52.306;5.634;2023-04-24T10:38:48;1.67;;;1.30;;
60318;SDS011;46163;52.306;5.634;2023-04-24T10:41:15;2.47;;;1.10;;
60318;SDS011;46163;52.306;5.634;2023-04-24T10:43:45;1.02;;;1.02;;
60318;SDS011;46163;52.306;5.634;2023-04-24T10:48:44;1.20;;;1.10;;
60318;SDS011;46163;52.306;5.634;2023-04-24T10:51:17;2.05;;;1.20;;
60318;SDS011;46163;52.306;5.634;2023-04-24T10:53:43;1.00;;;1.00;;
60318;SDS011;46163;52.306;5.634;2023-04-24T10:56:09;1.40;;;1.10;;
60318;SDS011;46163;52.306;5.634;2023-04-24T10:58:44;1.40;;;1.30;;
60318;SDS011;46163;52.306;5.634;2023-04-24T11:01:28;2.33;;;1.48;;
60318;SDS011;46163;52.306;5.634;2023-04-24T11:03:59;1.40;;;1.20;;
60318;SDS011;46163;52.306;5.634;2023-04-24T11:06:33;1.77;;;1.30;;
60318;SDS011;46163;52.306;5.634;2023-04-24T11:09:04;2.67;;;1.33;;
60318;SDS011;46163;52.306;5.634;2023-04-24T11:11:32;1.55;;;1.20;;
60318;SDS011;46163;52.306;5.634;2023-04-24T11:16:27;1.50;;;1.38;;
60318;SDS011;46163;52.306;5.634;2023-04-24T11:34:48;1.60;;;1.20;;
60318;SDS011;46163;52.306;5.634;2023-04-24T11:37:17;1.30;;;1.10;;
60318;SDS011;46163;52.306;5.634;2023-04-24T11:39:44;2.27;;;1.20;;
60318;SDS011;46163;52.306;5.634;2023-04-24T11:42:10;2.40;;;1.30;;
60318;SDS011;46163;52.306;5.634;2023-04-24T11:44:38;1.40;;;1.30;;
60318;SDS011;46163;52.306;5.634;2023-04-24T11:47:06;1.90;;;1.35;;
60318;SDS011;46163;52.306;5.634;2023-04-24T11:49:37;1.42;;;1.20;;
60318;SDS011;46163;52.306;5.634;2023-04-24T11:52:03;2.65;;;1.13;;
60318;SDS011;46163;52.306;5.634;2023-04-24T11:54:29;2.85;;;1.23;;
60318;SDS011;46163;52.306;5.634;2023-04-24T11:56:55;1.20;;;1.10;;
60318;SDS011;46163;52.306;5.634;2023-04-24T11:59:21;2.28;;;1.30;;
60318;SDS011;46163;52.306;5.634;2023-04-24T12:01:47;2.03;;;1.17;;
60318;SDS011;46163;52.306;5.634;2023-04-24T12:04:14;1.30;;;1.20;;
60318;SDS011;46163;52.306;5.634;2023-04-24T12:09:47;2.22;;;1.50;;
60318;SDS011;46163;52.306;5.634;2023-04-24T12:12:14;1.25;;;1.10;;
60318;SDS011;46163;52.306;5.634;2023-04-24T12:14:42;1.45;;;1.35;;
60318;SDS011;46163;52.306;5.634;2023-04-24T12:17:13;1.52;;;1.27;;
60318;SDS011;46163;52.306;5.634;2023-04-24T12:19:44;3.08;;;1.60;;
60318;SDS011;46163;52.306;5.634;2023-04-24T12:22:13;1.15;;;1.05;;
60318;SDS011;46163;52.306;5.634;2023-04-24T12:24:55;1.20;;;1.10;;
60318;SDS011;46163;52.306;5.634;2023-04-24T12:27:32;2.75;;;1.17;;
60318;SDS011;46163;52.306;5.634;2023-04-24T12:32:28;1.13;;;1.00;;
60318;SDS011;46163;52.306;5.634;2023-04-24T12:34:54;3.10;;;1.30;;
60318;SDS011;46163;52.306;5.634;2023-04-24T12:37:22;2.47;;;1.20;;
60318;SDS011;46163;52.306;5.634;2023-04-24T12:42:49;1.15;;;1.05;;
60318;SDS011;46163;52.306;5.634;2023-04-24T12:45:17;1.50;;;1.30;;
60318;SDS011;46163;52.306;5.634;2023-04-24T12:47:43;4.60;;;1.30;;
60318;SDS011;46163;52.306;5.634;2023-04-24T12:50:10;1.65;;;1.17;;
60318;SDS011;46163;52.306;5.634;2023-04-24T12:52:37;1.42;;;1.30;;
60318;SDS011;46163;52.306;5.634;2023-04-24T12:55:05;2.03;;;1.05;;
60318;SDS011;46163;52.306;5.634;2023-04-24T12:57:35;1.65;;;1.23;;
60318;SDS011;46163;52.306;5.634;2023-04-24T13:00:03;1.50;;;1.00;;
60318;SDS011;46163;52.306;5.634;2023-04-24T13:02:29;2.58;;;1.30;;
60318;SDS011;46163;52.306;5.634;2023-04-24T13:04:56;2.50;;;1.35;;
60318;SDS011;46163;52.306;5.634;2023-04-24T13:07:23;1.20;;;1.10;;
60318;SDS011;46163;52.306;5.634;2023-04-24T13:09:49;1.00;;;1.00;;
60318;SDS011;46163;52.306;5.634;2023-04-24T13:12:15;4.60;;;1.30;;
60318;SDS011;46163;52.306;5.634;2023-04-24T13:14:41;2.65;;;1.38;;
60318;SDS011;46163;52.306;5.634;2023-04-24T13:17:06;1.05;;;1.05;;
60318;SDS011;46163;52.306;5.634;2023-04-24T13:19:36;2.55;;;1.40;;
60318;SDS011;46163;52.306;5.634;2023-04-24T13:22:03;2.28;;;1.08;;
60318;SDS011;46163;52.306;5.634;2023-04-24T13:24:29;2.80;;;1.20;;
60318;SDS011;46163;52.306;5.634;2023-04-24T13:26:56;1.55;;;1.13;;
60318;SDS011;46163;52.306;5.634;2023-04-24T13:29:22;1.35;;;1.13;;
60318;SDS011;46163;52.306;5.634;2023-04-24T13:31:52;2.35;;;1.27;;
60318;SDS011;46163;52.306;5.634;2023-04-24T13:34:21;1.15;;;1.08;;
60318;SDS011;46163;52.306;5.634;2023-04-24T13:36:48;2.17;;;1.20;;
60318;SDS011;46163;52.306;5.634;2023-04-24T13:39:15;3.17;;;1.23;;
60318;SDS011;46163;52.306;5.634;2023-04-24T13:41:40;3.97;;;1.50;;
60318;SDS011;46163;52.306;5.634;2023-04-24T13:44:06;2.83;;;1.27;;
60318;SDS011;46163;52.306;5.634;2023-04-24T13:46:32;1.50;;;1.38;;
60318;SDS011;46163;52.306;5.634;2023-04-24T13:48:58;2.90;;;1.23;;
60318;SDS011;46163;52.306;5.634;2023-04-24T13:51:24;1.80;;;1.17;;
60318;SDS011;46163;52.306;5.634;2023-04-24T13:56:51;1.23;;;1.00;;
60318;SDS011;46163;52.306;5.634;2023-04-24T13:59:17;3.10;;;1.38;;
60318;SDS011;46163;52.306;5.634;2023-04-24T14:01:44;1.10;;;1.00;;
60318;SDS011;46163;52.306;5.634;2023-04-24T14:04:10;1.23;;;1.15;;
60318;SDS011;46163;52.306;5.634;2023-04-24T14:06:44;2.50;;;1.27;;
60318;SDS011;46163;52.306;5.634;2023-04-24T14:09:10;1.20;;;1.10;;
60318;SDS011;46163;52.306;5.634;2023-04-24T14:11:35;1.55;;;1.10;;
60318;SDS011;46163;52.306;5.634;2023-04-24T14:14:01;1.38;;;1.20;;
60318;SDS011;46163;52.306;5.634;2023-04-24T14:16:27;5.30;;;1.70;;
60318;SDS011;46163;52.306;5.634;2023-04-24T14:18:53;3.13;;;1.52;;
60318;SDS011;46163;52.306;5.634;2023-04-24T14:21:18;5.18;;;2.35;;
60318;SDS011;46163;52.306;5.634;2023-04-24T14:23:44;9.65;;;2.65;;
60318;SDS011;46163;52.306;5.634;2023-04-24T14:26:10;6.75;;;2.30;;
60318;SDS011;46163;52.306;5.634;2023-04-24T14:28:35;8.75;;;3.20;;
60318;SDS011;46163;52.306;5.634;2023-04-24T14:31:01;10.38;;;3.10;;
60318;SDS011;46163;52.306;5.634;2023-04-24T14:33:26;13.38;;;3.35;;
60318;SDS011;46163;52.306;5.634;2023-04-24T14:35:52;15.60;;;3.88;;
60318;SDS011;46163;52.306;5.634;2023-04-24T14:38:17;12.88;;;4.18;;
60318;SDS011;46163;52.306;5.634;2023-04-24T14:40:43;6.65;;;3.10;;
60318;SDS011;46163;52.306;5.634;2023-04-24T14:43:08;7.50;;;3.35;;
60318;SDS011;46163;52.306;5.634;2023-04-24T14:45:34;10.02;;;3.45;;
60318;SDS011;46163;52.306;5.634;2023-04-24T14:47:59;12.23;;;4.03;;
60318;SDS011;46163;52.306;5.634;2023-04-24T14:50:25;13.68;;;4.80;;
60318;SDS011;46163;52.306;5.634;2023-04-24T14:52:53;13.00;;;3.88;;
60318;SDS011;46163;52.306;5.634;2023-04-24T14:55:22;15.15;;;4.53;;
60318;SDS011;46163;52.306;5.634;2023-04-24T14:57:48;16.00;;;4.68;;
60318;SDS011;46163;52.306;5.634;2023-04-24T15:00:13;12.40;;;4.30;;
60318;SDS011;46163;52.306;5.634;2023-04-24T15:02:41;11.85;;;3.88;;
60318;SDS011;46163;52.306;5.634;2023-04-24T15:05:09;12.68;;;3.72;;
60318;SDS011;46163;52.306;5.634;2023-04-24T15:07:35;14.05;;;4.22;;
60318;SDS011;46163;52.306;5.634;2023-04-24T15:10:01;8.63;;;3.55;;
60318;SDS011;46163;52.306;5.634;2023-04-24T15:12:27;7.32;;;3.40;;
60318;SDS011;46163;52.306;5.634;2023-04-24T15:14:53;11.25;;;3.45;;
60318;SDS011;46163;52.306;5.634;2023-04-24T15:17:19;10.55;;;2.92;;
60318;SDS011;46163;52.306;5.634;2023-04-24T15:19:45;6.95;;;2.88;;
60318;SDS011;46163;52.306;5.634;2023-04-24T15:22:10;7.30;;;2.35;;
60318;SDS011;46163;52.306;5.634;2023-04-24T15:24:35;8.13;;;3.47;;